Waterloo, IA

2:14 PM CDT on August 29, 2016 (GMT -0500)
Waterloo Municipal | | Change Station
Active Advisory: Special Statement

Elev 873 ft 42.55 °N, 92.40 °W | Updated 20 minutes ago

Partly Cloudy
Partly Cloudy
80 °F
Feels Like 84 °F
N
6
Wind Variable Wind from ESE

Today
High -- | Low -- °F
--% Chance of Precip.
Yesterday
High -- | Low -- °F
Precip. -- in
Pressure 30.18 in
Visibility 10.0 miles
Clouds Few 12000 ft
Heat Index 84 °F
Dew Point 72 °F
Humidity 76%
Rainfall 0.00 in
Snow Depth Not available.
6:31 AM 7:47 PM
Waning Crescent, 7% visible
METAR KALO 291854Z AUTO 12005KT 10SM FEW120 27/22 A3019 RMK AO2 LTG DSNT SE SLP219 T02670222
Pressure 30.18 in
Visibility 10.0 miles
Clouds Few 12000 ft
Heat Index 84 °F
Dew Point 72 °F
Humidity 76%
Rainfall 0.00 in
Snow Depth Not available.
6:31 AM 7:47 PM
Waning Crescent, 7% visible
METAR KALO 291854Z AUTO 12005KT 10SM FEW120 27/22 A3019 RMK AO2 LTG DSNT SE SLP219 T02670222

10-Day Weather Forecast

Almanac

Astronomy

Aug. 29, 2016 Rise Set
Actual Time
Civil Twilight
Nautical Twilight
Astronomical Twilight
Moon
Length of Visible Light
Length of Day
Tomorrow will be .
, % of the Moon is Illuminated

Today's Extremes

State Highs State Lows

Community

WunderPhotos

Upload Photos

1,935,681 photos uploaded!

WunderBlog® & News

Nearby

Air Quality

  Air Quality AQ Index Pollutant
Not available.

Snow Depth

Station Depth Elevation

Earthquake Activity

City Distance Mag. Time & Date
Minimum magnitude displayed is 2.5.

Coastal Water Temperatures

Place Temperature

Stations

Nearby Weather Stations

Station Location Temp. Windchill Dew Point Humidity Wind Precip. Elev Updated Type
                   

Watches & Warnings

Special Statement
Issued: 1:37 PM CDT Aug. 29, 2016 – National Weather Service

... Conditions are favorable for funnel clouds...

Current atmospheric conditions support the development of funnel
clouds across much of Iowa this afternoon. Usually... these funnel
clouds can form from showers and weak thunderstorms. These funnels
are normally brief... drop only a few hundred feet from the cloud
base... and rarely become a tornado or cause damage. However... if
one is spotted... please immediately report it to the National
Weather Service. If a Tornado Warning would become
necessary... take appropriate action.


Small